sensor_id;sensor_type;location;lat;lon;timestamp;temperature;humidity
7654;DHT22;3869;48.406;10.774;2023-12-22T00:00:36;6.20;99.90
7654;DHT22;3869;48.406;10.774;2023-12-22T00:03:04;6.10;99.90
7654;DHT22;3869;48.406;10.774;2023-12-22T00:05:32;6.00;99.90
7654;DHT22;3869;48.406;10.774;2023-12-22T00:08:00;6.10;99.90
7654;DHT22;3869;48.406;10.774;2023-12-22T00:10:28;6.00;99.90
7654;DHT22;3869;48.406;10.774;2023-12-22T00:12:56;5.80;99.90
7654;DHT22;3869;48.406;10.774;2023-12-22T00:15:24;5.70;99.90
7654;DHT22;3869;48.406;10.774;2023-12-22T00:17:53;5.70;99.90
7654;DHT22;3869;48.406;10.774;2023-12-22T00:20:21;5.50;99.90
7654;DHT22;3869;48.406;10.774;2023-12-22T00:22:50;5.20;99.90
7654;DHT22;3869;48.406;10.774;2023-12-22T00:25:18;5.10;99.90
7654;DHT22;3869;48.406;10.774;2023-12-22T00:27:46;5.00;99.90
7654;DHT22;3869;48.406;10.774;2023-12-22T00:30:14;4.90;99.90
7654;DHT22;3869;48.406;10.774;2023-12-22T00:32:42;4.90;99.90
7654;DHT22;3869;48.406;10.774;2023-12-22T00:35:12;4.80;99.90
7654;DHT22;3869;48.406;10.774;2023-12-22T00:37:39;4.80;99.90
7654;DHT22;3869;48.406;10.774;2023-12-22T00:40:08;4.80;99.90
7654;DHT22;3869;48.406;10.774;2023-12-22T00:42:37;4.80;99.90
7654;DHT22;3869;48.406;10.774;2023-12-22T00:45:05;4.70;99.90
7654;DHT22;3869;48.406;10.774;2023-12-22T00:47:34;4.70;99.90
7654;DHT22;3869;48.406;10.774;2023-12-22T00:50:03;4.60;99.90
7654;DHT22;3869;48.406;10.774;2023-12-22T00:52:33;4.60;99.90
7654;DHT22;3869;48.406;10.774;2023-12-22T00:55:02;4.60;99.90
7654;DHT22;3869;48.406;10.774;2023-12-22T00:57:30;4.50;99.90
7654;DHT22;3869;48.406;10.774;2023-12-22T00:59:58;4.40;99.90
7654;DHT22;3869;48.406;10.774;2023-12-22T01:02:26;4.30;99.90
7654;DHT22;3869;48.406;10.774;2023-12-22T01:04:54;4.20;99.90
7654;DHT22;3869;48.406;10.774;2023-12-22T01:07:22;4.30;99.90
7654;DHT22;3869;48.406;10.774;2023-12-22T01:09:51;4.40;99.90
7654;DHT22;3869;48.406;10.774;2023-12-22T01:12:20;4.20;99.90
7654;DHT22;3869;48.406;10.774;2023-12-22T01:14:48;4.20;99.90
7654;DHT22;3869;48.406;10.774;2023-12-22T01:17:18;4.10;99.90
7654;DHT22;3869;48.406;10.774;2023-12-22T01:19:46;3.90;99.90
7654;DHT22;3869;48.406;10.774;2023-12-22T01:22:14;3.90;99.90
7654;DHT22;3869;48.406;10.774;2023-12-22T01:24:43;3.90;99.90
7654;DHT22;3869;48.406;10.774;2023-12-22T01:27:13;3.70;99.90
7654;DHT22;3869;48.406;10.774;2023-12-22T01:29:41;3.80;99.90
7654;DHT22;3869;48.406;10.774;2023-12-22T01:32:09;3.80;99.90
7654;DHT22;3869;48.406;10.774;2023-12-22T01:34:37;3.70;99.90
7654;DHT22;3869;48.406;10.774;2023-12-22T01:37:05;3.60;99.90
7654;DHT22;3869;48.406;10.774;2023-12-22T01:39:33;3.60;99.90
7654;DHT22;3869;48.406;10.774;2023-12-22T01:42:01;3.70;99.90
7654;DHT22;3869;48.406;10.774;2023-12-22T01:44:31;3.50;99.90
7654;DHT22;3869;48.406;10.774;2023-12-22T01:46:59;3.50;99.90
7654;DHT22;3869;48.406;10.774;2023-12-22T01:49:27;3.60;99.90
7654;DHT22;3869;48.406;10.774;2023-12-22T01:51:56;3.60;99.90
7654;DHT22;3869;48.406;10.774;2023-12-22T01:54:25;3.40;99.90
7654;DHT22;3869;48.406;10.774;2023-12-22T01:56:54;3.40;99.90
7654;DHT22;3869;48.406;10.774;2023-12-22T01:59:22;3.30;99.90
7654;DHT22;3869;48.406;10.774;2023-12-22T02:01:52;3.20;99.90
7654;DHT22;3869;48.406;10.774;2023-12-22T02:04:21;3.20;99.90
7654;DHT22;3869;48.406;10.774;2023-12-22T02:06:49;3.20;99.90
7654;DHT22;3869;48.406;10.774;2023-12-22T02:09:18;3.20;99.90
7654;DHT22;3869;48.406;10.774;2023-12-22T02:11:46;3.10;99.90
7654;DHT22;3869;48.406;10.774;2023-12-22T02:14:14;3.10;99.90
7654;DHT22;3869;48.406;10.774;2023-12-22T02:16:45;3.10;99.90
7654;DHT22;3869;48.406;10.774;2023-12-22T02:19:27;3.10;99.90
7654;DHT22;3869;48.406;10.774;2023-12-22T02:22:01;3.10;99.90
7654;DHT22;3869;48.406;10.774;2023-12-22T02:24:36;3.10;99.90
7654;DHT22;3869;48.406;10.774;2023-12-22T02:27:06;3.20;99.90
7654;DHT22;3869;48.406;10.774;2023-12-22T02:29:37;3.30;99.90
7654;DHT22;3869;48.406;10.774;2023-12-22T02:32:08;3.40;99.90
7654;DHT22;3869;48.406;10.774;2023-12-22T02:34:40;3.40;99.90
7654;DHT22;3869;48.406;10.774;2023-12-22T02:37:10;3.40;99.90
7654;DHT22;3869;48.406;10.774;2023-12-22T02:39:41;3.50;99.90
7654;DHT22;3869;48.406;10.774;2023-12-22T02:42:10;3.60;99.90
7654;DHT22;3869;48.406;10.774;2023-12-22T02:44:39;3.60;99.90
7654;DHT22;3869;48.406;10.774;2023-12-22T02:47:07;3.70;99.90
7654;DHT22;3869;48.406;10.774;2023-12-22T02:49:35;3.70;99.90
7654;DHT22;3869;48.406;10.774;2023-12-22T02:52:03;3.80;99.90
7654;DHT22;3869;48.406;10.774;2023-12-22T02:54:32;3.70;99.90
7654;DHT22;3869;48.406;10.774;2023-12-22T02:57:01;3.70;99.90
7654;DHT22;3869;48.406;10.774;2023-12-22T02:59:29;3.80;99.90
7654;DHT22;3869;48.406;10.774;2023-12-22T03:01:57;3.80;99.90
7654;DHT22;3869;48.406;10.774;2023-12-22T03:04:25;3.80;99.90
7654;DHT22;3869;48.406;10.774;2023-12-22T03:06:54;3.80;99.90
7654;DHT22;3869;48.406;10.774;2023-12-22T03:09:22;3.80;99.90
7654;DHT22;3869;48.406;10.774;2023-12-22T03:11:50;3.80;99.90
7654;DHT22;3869;48.406;10.774;2023-12-22T03:14:22;3.80;99.90
7654;DHT22;3869;48.406;10.774;2023-12-22T03:16:50;3.80;99.90
7654;DHT22;3869;48.406;10.774;2023-12-22T03:19:18;3.80;99.90
7654;DHT22;3869;48.406;10.774;2023-12-22T03:21:46;3.90;99.90
7654;DHT22;3869;48.406;10.774;2023-12-22T03:24:15;3.90;99.90
7654;DHT22;3869;48.406;10.774;2023-12-22T03:26:45;3.80;99.90
7654;DHT22;3869;48.406;10.774;2023-12-22T03:29:13;3.90;99.90
7654;DHT22;3869;48.406;10.774;2023-12-22T03:31:43;3.90;99.90
7654;DHT22;3869;48.406;10.774;2023-12-22T03:34:11;3.90;99.90
7654;DHT22;3869;48.406;10.774;2023-12-22T03:36:39;4.00;99.90
7654;DHT22;3869;48.406;10.774;2023-12-22T03:39:07;4.00;99.90
7654;DHT22;3869;48.406;10.774;2023-12-22T03:41:36;4.10;99.90
7654;DHT22;3869;48.406;10.774;2023-12-22T03:44:04;4.10;99.90
7654;DHT22;3869;48.406;10.774;2023-12-22T03:46:32;4.20;99.90
7654;DHT22;3869;48.406;10.774;2023-12-22T03:49:01;4.20;99.90
7654;DHT22;3869;48.406;10.774;2023-12-22T03:51:29;4.20;99.90
7654;DHT22;3869;48.406;10.774;2023-12-22T03:53:57;4.30;99.90
7654;DHT22;3869;48.406;10.774;2023-12-22T03:56:25;4.30;99.90
7654;DHT22;3869;48.406;10.774;2023-12-22T03:58:53;4.30;99.90
7654;DHT22;3869;48.406;10.774;2023-12-22T04:01:21;4.40;99.90
7654;DHT22;3869;48.406;10.774;2023-12-22T04:03:49;4.40;99.90
7654;DHT22;3869;48.406;10.774;2023-12-22T04:06:19;4.40;99.90
7654;DHT22;3869;48.406;10.774;2023-12-22T04:08:47;4.40;99.90
7654;DHT22;3869;48.406;10.774;2023-12-22T04:11:15;4.50;99.90
7654;DHT22;3869;48.406;10.774;2023-12-22T04:13:43;4.50;99.90
7654;DHT22;3869;48.406;10.774;2023-12-22T04:16:11;4.50;99.90
7654;DHT22;3869;48.406;10.774;2023-12-22T04:18:39;4.60;99.90
7654;DHT22;3869;48.406;10.774;2023-12-22T04:21:07;4.60;99.90
7654;DHT22;3869;48.406;10.774;2023-12-22T04:23:36;4.60;99.90
7654;DHT22;3869;48.406;10.774;2023-12-22T04:26:04;4.70;99.90
7654;DHT22;3869;48.406;10.774;2023-12-22T04:28:32;4.70;99.90
7654;DHT22;3869;48.406;10.774;2023-12-22T04:31:00;4.70;99.90
7654;DHT22;3869;48.406;10.774;2023-12-22T04:33:28;4.80;99.90
7654;DHT22;3869;48.406;10.774;2023-12-22T04:35:56;4.70;99.90
7654;DHT22;3869;48.406;10.774;2023-12-22T04:38:24;4.80;99.90
7654;DHT22;3869;48.406;10.774;2023-12-22T04:40:53;4.80;99.90
7654;DHT22;3869;48.406;10.774;2023-12-22T04:43:21;4.80;99.90
7654;DHT22;3869;48.406;10.774;2023-12-22T04:45:49;4.80;99.90
7654;DHT22;3869;48.406;10.774;2023-12-22T04:48:17;4.80;99.90
7654;DHT22;3869;48.406;10.774;2023-12-22T04:50:46;4.90;99.90
7654;DHT22;3869;48.406;10.774;2023-12-22T04:53:14;4.90;99.90
7654;DHT22;3869;48.406;10.774;2023-12-22T04:55:42;4.90;99.90
7654;DHT22;3869;48.406;10.774;2023-12-22T04:58:11;4.90;99.90
7654;DHT22;3869;48.406;10.774;2023-12-22T05:00:39;5.00;99.90
7654;DHT22;3869;48.406;10.774;2023-12-22T05:03:07;4.90;99.90
7654;DHT22;3869;48.406;10.774;2023-12-22T05:05:35;4.90;99.90
7654;DHT22;3869;48.406;10.774;2023-12-22T05:08:04;4.90;99.90
7654;DHT22;3869;48.406;10.774;2023-12-22T05:10:32;5.00;99.90
7654;DHT22;3869;48.406;10.774;2023-12-22T05:13:00;5.00;99.90
7654;DHT22;3869;48.406;10.774;2023-12-22T05:15:29;5.00;99.90
7654;DHT22;3869;48.406;10.774;2023-12-22T05:17:57;5.00;99.90
7654;DHT22;3869;48.406;10.774;2023-12-22T05:20:25;5.00;99.90
7654;DHT22;3869;48.406;10.774;2023-12-22T05:22:54;4.90;99.90
7654;DHT22;3869;48.406;10.774;2023-12-22T05:25:22;4.80;99.90
7654;DHT22;3869;48.406;10.774;2023-12-22T05:27:50;4.80;99.90
7654;DHT22;3869;48.406;10.774;2023-12-22T05:30:18;4.70;99.90
7654;DHT22;3869;48.406;10.774;2023-12-22T05:32:48;4.60;99.90
7654;DHT22;3869;48.406;10.774;2023-12-22T05:35:16;4.50;99.90
7654;DHT22;3869;48.406;10.774;2023-12-22T05:37:44;4.50;99.90
7654;DHT22;3869;48.406;10.774;2023-12-22T05:40:13;4.40;99.90
7654;DHT22;3869;48.406;10.774;2023-12-22T05:42:41;4.50;99.90
7654;DHT22;3869;48.406;10.774;2023-12-22T05:45:09;4.40;99.90
7654;DHT22;3869;48.406;10.774;2023-12-22T05:47:37;4.40;99.90
7654;DHT22;3869;48.406;10.774;2023-12-22T05:50:08;4.40;99.90
7654;DHT22;3869;48.406;10.774;2023-12-22T05:52:37;4.40;99.90
7654;DHT22;3869;48.406;10.774;2023-12-22T05:55:06;4.30;99.90
7654;DHT22;3869;48.406;10.774;2023-12-22T05:57:35;4.40;99.90
7654;DHT22;3869;48.406;10.774;2023-12-22T06:00:04;4.40;99.90
7654;DHT22;3869;48.406;10.774;2023-12-22T06:02:34;4.40;99.90
7654;DHT22;3869;48.406;10.774;2023-12-22T06:05:02;4.40;99.90
7654;DHT22;3869;48.406;10.774;2023-12-22T06:07:31;4.40;99.90
7654;DHT22;3869;48.406;10.774;2023-12-22T06:10:00;4.40;99.90
7654;DHT22;3869;48.406;10.774;2023-12-22T06:12:28;4.40;99.90
7654;DHT22;3869;48.406;10.774;2023-12-22T06:14:56;4.40;99.90
7654;DHT22;3869;48.406;10.774;2023-12-22T06:17:24;4.50;99.90
7654;DHT22;3869;48.406;10.774;2023-12-22T06:19:52;4.40;99.90
7654;DHT22;3869;48.406;10.774;2023-12-22T06:22:20;4.40;99.90
7654;DHT22;3869;48.406;10.774;2023-12-22T06:24:51;4.40;99.90
7654;DHT22;3869;48.406;10.774;2023-12-22T06:27:19;4.40;99.90
7654;DHT22;3869;48.406;10.774;2023-12-22T06:29:47;4.40;99.90
7654;DHT22;3869;48.406;10.774;2023-12-22T06:32:15;4.40;99.90
7654;DHT22;3869;48.406;10.774;2023-12-22T06:34:44;4.40;99.90
7654;DHT22;3869;48.406;10.774;2023-12-22T06:37:12;4.50;99.90
7654;DHT22;3869;48.406;10.774;2023-12-22T06:39:40;4.50;99.90
7654;DHT22;3869;48.406;10.774;2023-12-22T06:42:09;4.50;99.90
7654;DHT22;3869;48.406;10.774;2023-12-22T06:44:41;4.60;99.90
7654;DHT22;3869;48.406;10.774;2023-12-22T06:47:09;4.60;99.90
7654;DHT22;3869;48.406;10.774;2023-12-22T06:49:37;4.60;99.90
7654;DHT22;3869;48.406;10.774;2023-12-22T06:52:06;4.70;99.90
7654;DHT22;3869;48.406;10.774;2023-12-22T06:54:34;4.70;99.90
7654;DHT22;3869;48.406;10.774;2023-12-22T06:57:03;4.70;99.90
7654;DHT22;3869;48.406;10.774;2023-12-22T06:59:32;4.60;99.90
7654;DHT22;3869;48.406;10.774;2023-12-22T07:02:02;4.50;99.90
7654;DHT22;3869;48.406;10.774;2023-12-22T07:07:49;4.50;99.90
7654;DHT22;3869;48.406;10.774;2023-12-22T07:10:17;4.50;99.90
7654;DHT22;3869;48.406;10.774;2023-12-22T07:12:45;4.50;99.90
7654;DHT22;3869;48.406;10.774;2023-12-22T07:15:15;4.60;99.90
7654;DHT22;3869;48.406;10.774;2023-12-22T07:17:44;4.60;99.90
7654;DHT22;3869;48.406;10.774;2023-12-22T07:20:13;4.60;99.90
7654;DHT22;3869;48.406;10.774;2023-12-22T07:22:41;4.60;99.90
7654;DHT22;3869;48.406;10.774;2023-12-22T07:25:11;4.60;99.90
7654;DHT22;3869;48.406;10.774;2023-12-22T07:27:41;4.60;99.90
7654;DHT22;3869;48.406;10.774;2023-12-22T07:30:10;4.60;99.90
7654;DHT22;3869;48.406;10.774;2023-12-22T07:32:45;4.60;99.90
7654;DHT22;3869;48.406;10.774;2023-12-22T07:35:15;4.70;99.90
7654;DHT22;3869;48.406;10.774;2023-12-22T07:37:44;4.60;99.90
7654;DHT22;3869;48.406;10.774;2023-12-22T07:40:13;4.70;99.90
7654;DHT22;3869;48.406;10.774;2023-12-22T07:42:43;4.70;99.90
7654;DHT22;3869;48.406;10.774;2023-12-22T07:45:11;4.70;99.90
7654;DHT22;3869;48.406;10.774;2023-12-22T07:47:39;4.70;99.90
7654;DHT22;3869;48.406;10.774;2023-12-22T07:50:09;4.70;99.90
7654;DHT22;3869;48.406;10.774;2023-12-22T07:52:37;4.70;99.90
7654;DHT22;3869;48.406;10.774;2023-12-22T07:55:08;4.70;99.90
7654;DHT22;3869;48.406;10.774;2023-12-22T07:57:37;4.70;99.90
7654;DHT22;3869;48.406;10.774;2023-12-22T08:00:06;4.70;99.90
7654;DHT22;3869;48.406;10.774;2023-12-22T08:02:35;4.70;99.90
7654;DHT22;3869;48.406;10.774;2023-12-22T08:05:04;4.70;99.90
7654;DHT22;3869;48.406;10.774;2023-12-22T08:07:33;4.80;99.90
7654;DHT22;3869;48.406;10.774;2023-12-22T08:10:01;4.80;99.90
7654;DHT22;3869;48.406;10.774;2023-12-22T08:12:30;4.80;99.90
7654;DHT22;3869;48.406;10.774;2023-12-22T08:14:59;4.90;99.90
7654;DHT22;3869;48.406;10.774;2023-12-22T08:17:27;4.90;99.90
7654;DHT22;3869;48.406;10.774;2023-12-22T08:19:55;4.90;99.90
7654;DHT22;3869;48.406;10.774;2023-12-22T08:22:37;4.90;99.90
7654;DHT22;3869;48.406;10.774;2023-12-22T08:25:11;4.90;99.90
7654;DHT22;3869;48.406;10.774;2023-12-22T08:27:40;5.00;99.90
7654;DHT22;3869;48.406;10.774;2023-12-22T08:30:09;5.00;99.90
7654;DHT22;3869;48.406;10.774;2023-12-22T08:32:37;5.00;99.90
7654;DHT22;3869;48.406;10.774;2023-12-22T08:35:06;5.00;99.90
7654;DHT22;3869;48.406;10.774;2023-12-22T08:37:36;5.00;99.90
7654;DHT22;3869;48.406;10.774;2023-12-22T08:40:06;5.10;99.90
7654;DHT22;3869;48.406;10.774;2023-12-22T08:42:34;5.10;99.90
7654;DHT22;3869;48.406;10.774;2023-12-22T08:45:03;5.10;99.90
7654;DHT22;3869;48.406;10.774;2023-12-22T08:47:32;5.20;99.90
7654;DHT22;3869;48.406;10.774;2023-12-22T08:50:00;5.20;99.90
7654;DHT22;3869;48.406;10.774;2023-12-22T08:52:31;5.20;99.90
7654;DHT22;3869;48.406;10.774;2023-12-22T08:55:01;5.20;99.90
7654;DHT22;3869;48.406;10.774;2023-12-22T08:57:29;5.20;99.90
7654;DHT22;3869;48.406;10.774;2023-12-22T08:59:58;5.20;99.90
7654;DHT22;3869;48.406;10.774;2023-12-22T09:02:26;5.20;99.90
7654;DHT22;3869;48.406;10.774;2023-12-22T09:04:54;5.30;99.90
7654;DHT22;3869;48.406;10.774;2023-12-22T09:07:22;5.30;99.90
7654;DHT22;3869;48.406;10.774;2023-12-22T09:09:51;5.20;99.90
7654;DHT22;3869;48.406;10.774;2023-12-22T09:12:21;5.20;99.90
7654;DHT22;3869;48.406;10.774;2023-12-22T09:14:50;5.20;99.90
7654;DHT22;3869;48.406;10.774;2023-12-22T09:17:18;5.20;99.90
7654;DHT22;3869;48.406;10.774;2023-12-22T09:19:46;5.20;99.90
7654;DHT22;3869;48.406;10.774;2023-12-22T09:22:14;5.20;99.90
7654;DHT22;3869;48.406;10.774;2023-12-22T09:24:42;5.20;99.90
7654;DHT22;3869;48.406;10.774;2023-12-22T09:27:10;5.20;99.90
7654;DHT22;3869;48.406;10.774;2023-12-22T09:29:39;5.20;99.90
7654;DHT22;3869;48.406;10.774;2023-12-22T09:32:07;5.20;99.90
7654;DHT22;3869;48.406;10.774;2023-12-22T09:34:35;5.10;99.90
7654;DHT22;3869;48.406;10.774;2023-12-22T09:37:03;5.00;99.90
7654;DHT22;3869;48.406;10.774;2023-12-22T09:39:31;5.00;99.90
7654;DHT22;3869;48.406;10.774;2023-12-22T09:42:00;4.90;99.90
7654;DHT22;3869;48.406;10.774;2023-12-22T09:44:31;4.80;99.90
7654;DHT22;3869;48.406;10.774;2023-12-22T09:47:03;4.80;99.90
7654;DHT22;3869;48.406;10.774;2023-12-22T09:49:32;4.80;99.90
7654;DHT22;3869;48.406;10.774;2023-12-22T09:52:01;4.70;99.90
7654;DHT22;3869;48.406;10.774;2023-12-22T09:54:31;4.80;99.90
7654;DHT22;3869;48.406;10.774;2023-12-22T09:56:59;4.70;99.90
7654;DHT22;3869;48.406;10.774;2023-12-22T09:59:46;4.70;99.90
7654;DHT22;3869;48.406;10.774;2023-12-22T10:02:17;4.80;99.90
7654;DHT22;3869;48.406;10.774;2023-12-22T10:04:45;4.80;99.90
7654;DHT22;3869;48.406;10.774;2023-12-22T10:07:16;4.90;99.90
7654;DHT22;3869;48.406;10.774;2023-12-22T10:09:46;4.90;99.90
7654;DHT22;3869;48.406;10.774;2023-12-22T10:12:15;5.00;99.90
7654;DHT22;3869;48.406;10.774;2023-12-22T10:14:44;5.00;99.90
7654;DHT22;3869;48.406;10.774;2023-12-22T10:17:13;5.00;99.90
7654;DHT22;3869;48.406;10.774;2023-12-22T10:19:43;5.10;99.90
7654;DHT22;3869;48.406;10.774;2023-12-22T10:22:11;5.10;99.90
7654;DHT22;3869;48.406;10.774;2023-12-22T10:24:40;5.10;99.90
7654;DHT22;3869;48.406;10.774;2023-12-22T10:27:11;5.10;99.90
7654;DHT22;3869;48.406;10.774;2023-12-22T10:29:39;5.10;99.90
7654;DHT22;3869;48.406;10.774;2023-12-22T10:32:08;5.10;99.90
7654;DHT22;3869;48.406;10.774;2023-12-22T10:34:36;5.10;99.90
7654;DHT22;3869;48.406;10.774;2023-12-22T10:37:06;5.20;99.90
7654;DHT22;3869;48.406;10.774;2023-12-22T10:39:36;5.20;99.90
7654;DHT22;3869;48.406;10.774;2023-12-22T10:42:05;5.20;99.90
7654;DHT22;3869;48.406;10.774;2023-12-22T10:44:33;5.20;99.90
7654;DHT22;3869;48.406;10.774;2023-12-22T10:47:01;5.20;99.90
7654;DHT22;3869;48.406;10.774;2023-12-22T10:49:30;5.20;99.90
7654;DHT22;3869;48.406;10.774;2023-12-22T10:52:00;5.20;99.90
7654;DHT22;3869;48.406;10.774;2023-12-22T10:54:30;5.20;99.90
7654;DHT22;3869;48.406;10.774;2023-12-22T10:56:59;5.20;99.90
7654;DHT22;3869;48.406;10.774;2023-12-22T10:59:28;5.20;99.90
7654;DHT22;3869;48.406;10.774;2023-12-22T11:01:58;5.30;99.90
7654;DHT22;3869;48.406;10.774;2023-12-22T11:04:30;5.30;99.90
7654;DHT22;3869;48.406;10.774;2023-12-22T11:06:59;5.30;99.90
7654;DHT22;3869;48.406;10.774;2023-12-22T11:09:32;5.30;99.90
7654;DHT22;3869;48.406;10.774;2023-12-22T11:12:02;5.30;99.90
7654;DHT22;3869;48.406;10.774;2023-12-22T11:14:31;5.30;99.90
7654;DHT22;3869;48.406;10.774;2023-12-22T11:17:00;5.30;99.90
7654;DHT22;3869;48.406;10.774;2023-12-22T11:19:31;5.30;99.90
7654;DHT22;3869;48.406;10.774;2023-12-22T11:22:02;5.30;99.90
7654;DHT22;3869;48.406;10.774;2023-12-22T11:24:33;5.40;99.90
7654;DHT22;3869;48.406;10.774;2023-12-22T11:27:04;5.40;99.90
7654;DHT22;3869;48.406;10.774;2023-12-22T11:29:34;5.50;99.90
7654;DHT22;3869;48.406;10.774;2023-12-22T11:32:04;5.50;99.90
7654;DHT22;3869;48.406;10.774;2023-12-22T11:34:36;5.60;99.90
7654;DHT22;3869;48.406;10.774;2023-12-22T11:37:07;5.60;99.90
7654;DHT22;3869;48.406;10.774;2023-12-22T11:39:37;5.70;99.90
7654;DHT22;3869;48.406;10.774;2023-12-22T11:42:07;5.70;99.90
7654;DHT22;3869;48.406;10.774;2023-12-22T11:44:36;5.70;99.90
7654;DHT22;3869;48.406;10.774;2023-12-22T11:47:06;5.60;99.90
7654;DHT22;3869;48.406;10.774;2023-12-22T11:49:35;5.60;99.90
7654;DHT22;3869;48.406;10.774;2023-12-22T11:52:11;5.60;99.90
7654;DHT22;3869;48.406;10.774;2023-12-22T11:54:48;5.60;99.90
7654;DHT22;3869;48.406;10.774;2023-12-22T11:57:30;5.60;99.90
7654;DHT22;3869;48.406;10.774;2023-12-22T12:00:01;5.60;99.90
7654;DHT22;3869;48.406;10.774;2023-12-22T12:02:33;5.60;99.90
7654;DHT22;3869;48.406;10.774;2023-12-22T12:05:02;5.60;99.90
7654;DHT22;3869;48.406;10.774;2023-12-22T12:07:41;5.60;99.90
7654;DHT22;3869;48.406;10.774;2023-12-22T12:10:14;5.60;99.90
7654;DHT22;3869;48.406;10.774;2023-12-22T12:13:05;5.60;99.90
7654;DHT22;3869;48.406;10.774;2023-12-22T12:15:35;5.70;99.90
7654;DHT22;3869;48.406;10.774;2023-12-22T12:18:04;5.70;99.90
7654;DHT22;3869;48.406;10.774;2023-12-22T12:20:32;5.70;99.90
7654;DHT22;3869;48.406;10.774;2023-12-22T12:23:01;5.70;99.90
7654;DHT22;3869;48.406;10.774;2023-12-22T12:25:32;5.80;99.90
7654;DHT22;3869;48.406;10.774;2023-12-22T12:28:04;5.70;99.90
7654;DHT22;3869;48.406;10.774;2023-12-22T12:30:33;5.70;99.90
7654;DHT22;3869;48.406;10.774;2023-12-22T12:33:06;5.70;99.90
7654;DHT22;3869;48.406;10.774;2023-12-22T12:35:36;5.70;99.90
7654;DHT22;3869;48.406;10.774;2023-12-22T12:38:11;5.70;99.90
7654;DHT22;3869;48.406;10.774;2023-12-22T12:40:41;5.70;99.90
7654;DHT22;3869;48.406;10.774;2023-12-22T12:43:10;5.70;99.90
7654;DHT22;3869;48.406;10.774;2023-12-22T12:45:38;5.60;99.90
7654;DHT22;3869;48.406;10.774;2023-12-22T12:48:08;5.60;99.90
7654;DHT22;3869;48.406;10.774;2023-12-22T12:50:37;5.60;99.90
7654;DHT22;3869;48.406;10.774;2023-12-22T12:53:05;5.60;99.90
7654;DHT22;3869;48.406;10.774;2023-12-22T12:55:34;5.60;99.90
7654;DHT22;3869;48.406;10.774;2023-12-22T12:58:04;5.60;99.90
7654;DHT22;3869;48.406;10.774;2023-12-22T13:00:33;5.60;99.90
7654;DHT22;3869;48.406;10.774;2023-12-22T13:03:04;5.60;99.90
7654;DHT22;3869;48.406;10.774;2023-12-22T13:05:34;5.60;99.90
7654;DHT22;3869;48.406;10.774;2023-12-22T13:08:09;5.60;99.90
7654;DHT22;3869;48.406;10.774;2023-12-22T13:10:39;5.60;99.90
7654;DHT22;3869;48.406;10.774;2023-12-22T13:13:09;5.60;99.90
7654;DHT22;3869;48.406;10.774;2023-12-22T13:15:40;5.60;99.90
7654;DHT22;3869;48.406;10.774;2023-12-22T13:18:08;5.60;99.90
7654;DHT22;3869;48.406;10.774;2023-12-22T13:20:36;5.60;99.90
7654;DHT22;3869;48.406;10.774;2023-12-22T13:23:04;5.60;99.90
7654;DHT22;3869;48.406;10.774;2023-12-22T13:25:38;5.60;99.90
7654;DHT22;3869;48.406;10.774;2023-12-22T13:28:08;5.60;99.90
7654;DHT22;3869;48.406;10.774;2023-12-22T13:30:37;5.70;99.90
7654;DHT22;3869;48.406;10.774;2023-12-22T13:33:08;5.70;99.90
7654;DHT22;3869;48.406;10.774;2023-12-22T13:35:37;5.60;99.90
7654;DHT22;3869;48.406;10.774;2023-12-22T13:38:09;5.60;99.90
7654;DHT22;3869;48.406;10.774;2023-12-22T13:40:38;5.60;99.90
7654;DHT22;3869;48.406;10.774;2023-12-22T13:43:07;5.60;99.90
7654;DHT22;3869;48.406;10.774;2023-12-22T13:45:36;5.60;99.90
7654;DHT22;3869;48.406;10.774;2023-12-22T13:48:05;5.70;99.90
7654;DHT22;3869;48.406;10.774;2023-12-22T13:50:34;5.60;99.90
7654;DHT22;3869;48.406;10.774;2023-12-22T13:53:09;5.70;99.90
7654;DHT22;3869;48.406;10.774;2023-12-22T13:55:38;5.70;99.90
7654;DHT22;3869;48.406;10.774;2023-12-22T13:58:07;5.70;99.90
7654;DHT22;3869;48.406;10.774;2023-12-22T14:00:37;5.70;99.90
7654;DHT22;3869;48.406;10.774;2023-12-22T14:03:07;5.70;99.90
7654;DHT22;3869;48.406;10.774;2023-12-22T14:05:35;5.70;99.90
7654;DHT22;3869;48.406;10.774;2023-12-22T14:08:04;5.70;99.90
7654;DHT22;3869;48.406;10.774;2023-12-22T14:10:32;5.70;99.90
7654;DHT22;3869;48.406;10.774;2023-12-22T14:13:00;5.70;99.90
7654;DHT22;3869;48.406;10.774;2023-12-22T14:15:29;5.70;99.90
7654;DHT22;3869;48.406;10.774;2023-12-22T14:18:11;5.80;99.90
7654;DHT22;3869;48.406;10.774;2023-12-22T14:20:39;5.80;99.90
7654;DHT22;3869;48.406;10.774;2023-12-22T14:23:08;5.80;99.90
7654;DHT22;3869;48.406;10.774;2023-12-22T14:25:40;5.80;99.90
7654;DHT22;3869;48.406;10.774;2023-12-22T14:28:08;5.80;99.90
7654;DHT22;3869;48.406;10.774;2023-12-22T14:30:37;5.80;99.90
7654;DHT22;3869;48.406;10.774;2023-12-22T14:33:04;5.80;99.90
7654;DHT22;3869;48.406;10.774;2023-12-22T14:35:35;5.90;99.90
7654;DHT22;3869;48.406;10.774;2023-12-22T14:38:03;5.90;99.90
7654;DHT22;3869;48.406;10.774;2023-12-22T14:40:31;5.90;99.90
7654;DHT22;3869;48.406;10.774;2023-12-22T14:42:59;5.90;99.90
7654;DHT22;3869;48.406;10.774;2023-12-22T14:45:29;5.90;99.90
7654;DHT22;3869;48.406;10.774;2023-12-22T14:47:57;5.90;99.90
7654;DHT22;3869;48.406;10.774;2023-12-22T14:50:25;6.00;99.90
7654;DHT22;3869;48.406;10.774;2023-12-22T14:52:54;5.90;99.90
7654;DHT22;3869;48.406;10.774;2023-12-22T14:55:22;6.00;99.90
7654;DHT22;3869;48.406;10.774;2023-12-22T14:57:51;6.00;99.90
7654;DHT22;3869;48.406;10.774;2023-12-22T15:00:19;6.10;99.90
7654;DHT22;3869;48.406;10.774;2023-12-22T15:02:47;6.10;99.90
7654;DHT22;3869;48.406;10.774;2023-12-22T15:05:16;6.10;99.90
7654;DHT22;3869;48.406;10.774;2023-12-22T15:07:44;6.20;99.90
7654;DHT22;3869;48.406;10.774;2023-12-22T15:10:15;6.10;99.90
7654;DHT22;3869;48.406;10.774;2023-12-22T15:12:43;6.10;99.90
7654;DHT22;3869;48.406;10.774;2023-12-22T15:15:11;6.10;99.90
7654;DHT22;3869;48.406;10.774;2023-12-22T15:17:39;6.10;99.90
7654;DHT22;3869;48.406;10.774;2023-12-22T15:20:07;6.10;99.90
7654;DHT22;3869;48.406;10.774;2023-12-22T15:22:38;6.10;99.90
7654;DHT22;3869;48.406;10.774;2023-12-22T15:25:07;6.20;99.90
7654;DHT22;3869;48.406;10.774;2023-12-22T15:27:37;6.20;99.90
7654;DHT22;3869;48.406;10.774;2023-12-22T15:30:07;6.20;99.90
7654;DHT22;3869;48.406;10.774;2023-12-22T15:32:35;6.20;99.90
7654;DHT22;3869;48.406;10.774;2023-12-22T15:35:04;6.20;99.90
7654;DHT22;3869;48.406;10.774;2023-12-22T15:37:32;6.20;99.90
7654;DHT22;3869;48.406;10.774;2023-12-22T15:40:02;6.30;99.90
7654;DHT22;3869;48.406;10.774;2023-12-22T15:42:31;6.30;99.90
7654;DHT22;3869;48.406;10.774;2023-12-22T15:45:00;6.20;99.90
7654;DHT22;3869;48.406;10.774;2023-12-22T15:47:28;6.30;99.90
7654;DHT22;3869;48.406;10.774;2023-12-22T15:49:56;6.30;99.90
7654;DHT22;3869;48.406;10.774;2023-12-22T15:52:24;6.30;99.90
7654;DHT22;3869;48.406;10.774;2023-12-22T15:54:52;6.30;99.90
7654;DHT22;3869;48.406;10.774;2023-12-22T15:57:20;6.30;99.90
7654;DHT22;3869;48.406;10.774;2023-12-22T15:59:48;6.40;99.90
7654;DHT22;3869;48.406;10.774;2023-12-22T16:02:17;6.40;99.90
7654;DHT22;3869;48.406;10.774;2023-12-22T16:04:46;6.40;99.90
7654;DHT22;3869;48.406;10.774;2023-12-22T16:07:14;6.40;99.90
7654;DHT22;3869;48.406;10.774;2023-12-22T16:09:42;6.40;99.90
7654;DHT22;3869;48.406;10.774;2023-12-22T16:12:10;6.40;99.90
7654;DHT22;3869;48.406;10.774;2023-12-22T16:14:38;6.50;99.90
7654;DHT22;3869;48.406;10.774;2023-12-22T16:17:06;6.40;99.90